Clark Colony, South Dakota
Current Conditions -  °F | °C
As of 9:53 PM on Tuesday 27 Jan 2015 (Local Time) from KATY Reporting Station
Clear Clear  
Wind Chill: 24°   Ceiling: Unl
Heat Index: 34°   Visibility: 10mi
Dew Point: 32°   Wind: 16mph
Humidity: 92%   Direction: 170°S
Pressure: 29.89"   Gusts: NA
Location:  44.8923°N, 97.9193°W
Report Text: KATY 280353Z AUTO 17014KT 10SM CLR 01/00 A2989 RMK AO2 SLP140 T00110000
Loading
Personal Weather Stations






























Interactive Weather Map New forecast layout! Learn more

10-Day Weather Forecast

Advertisements
Track Severe Weather on mobile